DUGK1: Little Walnut Rvr nr Bois d'Arc KS

Data processed at Thu Jun 20 2019 23:50


All information presented herein is the property of the government of the United States of America and may be revised or deleted at any time without prior notice.
Dissemination of this information without the expressed written consent of the Public Affairs Office, Tulsa District U.S. Army Corps of Engineers is strictly prohibited.
These data are gathered electronically and, as presented, have not undergone any form of quality control. These data are not guaranteed to be valid or correct.
Go to home page.
Go to station list.
Go to home page.

Downstream station:


Previous Day
Next Day
Current Day
    
SHEF ID:       DUGK1     Little Walnut Rvr nr Bois d'Arc
STATION TYPE:  

               PRECIP     STAGE  RIV-FLOW   VOLTAGE  BAT-LOAD
                   in        ft       cfs      volt      volt
              Ccp-Rev   Ccp-Rev   Ccp-Rev   Ccp-Rev   Ccp-Rev
(US/Central)
06/20 00:00      0.00     10.56      1635     12.97     12.81
06/20 01:00      0.00     10.49      1581     12.97     12.81
06/20 02:00      0.00     10.46      1558     12.97     12.81
06/20 03:00      0.00     10.39      1506     12.89     12.81
06/20 04:00      0.00     10.28      1427     12.89     12.73
06/20 05:00      0.00     10.23      1392     12.81     12.73
06/20 06:00      0.00     10.10      1305     12.81     12.73
06/20 07:00      0.00     10.15      1338     12.81     12.65
06/20 08:00      0.00     10.06      1279     12.81     12.73
06/20 09:00      0.00     10.05      1272     13.44     13.05
06/20 10:00      0.00     10.00      1241     13.68     13.29
06/20 11:00      0.00      9.91      1185     13.37     13.29
06/20 12:00      0.00      9.93      1197     13.37     13.29
06/20 13:00      0.00      9.84      1127     13.53     13.29
06/20 14:00      0.00      9.83      1118     13.53     13.29
06/20 15:00      0.00      9.82      1110     13.37     13.29
06/20 16:00      0.00      9.74      1044     14.00     13.29
06/20 17:00      0.00      9.73      1036     13.60     13.29
06/20 18:00      0.00      9.70      1012     13.29     13.21
06/20 19:00      0.00      9.65       974     13.13     13.05
06/20 20:00      0.00      9.65       974     13.05     12.97
06/20 21:00      0.00      9.59       930     13.05     12.89
06/20 22:00      0.00      9.58       922     13.05     12.89
06/20 23:00      0.00      9.52       880     12.97     12.89